createdAt,value
2023-01-08T00:01:32.523Z,97329.19
2023-01-08T00:04:00.117Z,97328.78
2023-01-08T00:06:27.885Z,97319.66
2023-01-08T00:08:55.488Z,97321.84
2023-01-08T00:11:23.035Z,97312.88
2023-01-08T00:13:51.310Z,97314.50
2023-01-08T00:16:20.120Z,97302.88
2023-01-08T00:18:48.099Z,97306.31
2023-01-08T00:21:15.731Z,97309.56
2023-01-08T00:23:43.185Z,97304.66
2023-01-08T00:26:11.323Z,97309.16
2023-01-08T00:28:39.753Z,97303.44
2023-01-08T00:31:09.647Z,97308.16
2023-01-08T00:33:38.469Z,97309.97
2023-01-08T00:36:11.133Z,97307.59
2023-01-08T00:38:38.732Z,97303.72
2023-01-08T00:41:06.522Z,97301.47
2023-01-08T00:43:34.915Z,97301.28
2023-01-08T00:46:02.598Z,97307.56
2023-01-08T00:48:31.218Z,97304.31
2023-01-08T00:50:58.747Z,97307.34
2023-01-08T00:53:26.301Z,97299.22
2023-01-08T00:56:04.127Z,97294.34
2023-01-08T00:58:32.039Z,97301.47
2023-01-08T01:00:59.616Z,97301.28
2023-01-08T01:03:27.467Z,97285.59
2023-01-08T01:06:05.913Z,97292.34
2023-01-08T01:08:34.664Z,97273.84
2023-01-08T01:11:10.054Z,97278.69
2023-01-08T01:13:37.626Z,97279.94
2023-01-08T01:16:05.408Z,97272.59
2023-01-08T01:18:32.971Z,97269.56
2023-01-08T01:21:00.586Z,97263.47
2023-01-08T01:23:28.106Z,97252.91
2023-01-08T01:25:55.713Z,97243.13
2023-01-08T01:28:23.246Z,97244.56
2023-01-08T01:30:57.227Z,97251.03
2023-01-08T01:33:24.882Z,97251.84
2023-01-08T01:36:03.019Z,97247.78
2023-01-08T01:38:30.922Z,97248.19
2023-01-08T01:40:58.891Z,97262.81
2023-01-08T01:43:43.603Z,97257.50
2023-01-08T01:46:20.320Z,97266.88
2023-01-08T01:48:51.435Z,97263.41
2023-01-08T01:51:20.624Z,97262.19
2023-01-08T01:53:50.017Z,97267.28
2023-01-08T01:56:17.527Z,97256.31
2023-01-08T01:58:44.985Z,97257.16
2023-01-08T02:01:13.356Z,97251.28
2023-01-08T02:03:40.916Z,97266.75
2023-01-08T02:06:35.622Z,97265.72
2023-01-08T02:09:07.888Z,97264.53
2023-01-08T02:11:47.458Z,97249.91
2023-01-08T02:15:01.695Z,97230.59
2023-01-08T02:17:38.761Z,97227.56
2023-01-08T02:20:11.715Z,97225.31
2023-01-08T02:22:51.586Z,97222.66
2023-01-08T02:25:51.102Z,97224.50
2023-01-08T02:28:19.264Z,97210.88
2023-01-08T02:30:47.863Z,97214.31
2023-01-08T02:33:15.648Z,97224.25
2023-01-08T02:35:51.948Z,97227.72
2023-01-08T02:38:19.731Z,97223.88
2023-01-08T02:40:47.174Z,97228.16
2023-01-08T02:43:22.015Z,97221.47
2023-01-08T02:45:58.601Z,97216.59
2023-01-08T02:48:49.543Z,97209.53
2023-01-08T02:51:24.355Z,97209.50
2023-01-08T02:53:58.546Z,97212.19
2023-01-08T02:56:32.457Z,97209.16
2023-01-08T02:59:00.947Z,97206.50
2023-01-08T03:01:29.768Z,97206.72
2023-01-08T03:04:04.232Z,97205.50
2023-01-08T03:06:32.383Z,97200.84
2023-01-08T03:09:00.666Z,97196.78
2023-01-08T03:11:36.165Z,97193.34
2023-01-08T03:14:37.780Z,97206.75
2023-01-08T03:17:21.268Z,97206.13
2023-01-08T03:19:59.824Z,97200.47
2023-01-08T03:22:28.663Z,97203.50
2023-01-08T03:24:59.484Z,97201.69
2023-01-08T03:27:32.770Z,97199.03
2023-01-08T03:30:00.764Z,97207.97
2023-01-08T03:32:31.251Z,97206.97
2023-01-08T03:35:00.853Z,97197.00
2023-01-08T03:37:33.912Z,97199.03
2023-01-08T03:40:07.834Z,97200.06
2023-01-08T03:42:35.636Z,97195.59
2023-01-08T03:45:04.054Z,97189.47
2023-01-08T03:47:33.782Z,97186.88
2023-01-08T03:50:04.167Z,97193.59
2023-01-08T03:52:33.182Z,97184.47
2023-01-08T03:55:00.731Z,97183.03
2023-01-08T03:57:28.629Z,97176.13
2023-01-08T03:59:56.095Z,97180.19
2023-01-08T04:02:23.732Z,97173.91
2023-01-08T04:04:51.294Z,97166.56
2023-01-08T04:07:19.179Z,97172.81
2023-01-08T04:09:47.262Z,97157.13
2023-01-08T04:12:14.802Z,97152.44
2023-01-08T04:14:42.316Z,97146.94
2023-01-08T04:17:13.507Z,97126.78
2023-01-08T04:19:41.246Z,97117.59
2023-01-08T04:22:11.521Z,97117.03
2023-01-08T04:24:39.027Z,97117.25
2023-01-08T04:27:06.547Z,97114.41
2023-01-08T04:29:34.140Z,97112.94
2023-01-08T04:32:01.631Z,97127.56
2023-01-08T04:34:29.316Z,97137.72
2023-01-08T04:36:56.896Z,97143.38
2023-01-08T04:39:24.462Z,97138.50
2023-01-08T04:41:51.929Z,97142.75
2023-01-08T04:44:19.554Z,97147.03
2023-01-08T04:46:47.085Z,97135.66
2023-01-08T04:49:14.903Z,97146.59
2023-01-08T04:51:42.490Z,97139.69
2023-01-08T04:54:10.142Z,97137.63
2023-01-08T04:56:37.659Z,97126.03
2023-01-08T04:59:05.637Z,97118.94
2023-01-08T05:01:33.254Z,97132.97
2023-01-08T05:04:02.954Z,97130.94
2023-01-08T05:06:31.811Z,97123.81
2023-01-08T05:08:59.288Z,97125.66
2023-01-08T05:11:26.869Z,97129.94
2023-01-08T05:13:54.405Z,97117.19
2023-01-08T05:16:22.184Z,97118.00
2023-01-08T05:18:50.465Z,97122.28
2023-01-08T05:21:18.554Z,97112.56
2023-01-08T05:23:50.305Z,97119.69
2023-01-08T05:26:19.453Z,97112.19
2023-01-08T05:28:47.285Z,97100.84
2023-01-08T05:31:15.593Z,97099.66
2023-01-08T05:33:43.455Z,97102.53
2023-01-08T05:40:23.647Z,97135.88
2023-01-08T05:42:51.176Z,97112.91
2023-01-08T05:45:18.590Z,97112.13
2023-01-08T05:47:46.173Z,97111.34
2023-01-08T05:50:13.690Z,97101.19
2023-01-08T05:52:41.381Z,97094.91
2023-01-08T05:55:09.327Z,97095.34
2023-01-08T05:57:37.068Z,97104.09
2023-01-08T06:00:09.945Z,97102.28
2023-01-08T06:02:40.356Z,97114.47
2023-01-08T06:05:08.252Z,97107.56
2023-01-08T06:07:35.919Z,97107.16
2023-01-08T06:10:03.647Z,97112.03
2023-01-08T06:12:31.077Z,97094.41
2023-01-08T06:14:58.688Z,97097.22
2023-01-08T06:17:26.250Z,97087.91
2023-01-08T06:19:53.856Z,97101.91
2023-01-08T06:22:21.365Z,97102.91
2023-01-08T06:24:48.875Z,97104.16
2023-01-08T06:27:16.403Z,97096.63
2023-01-08T06:29:43.953Z,97097.84
2023-01-08T06:32:11.472Z,97092.56
2023-01-08T06:34:38.959Z,97102.50
2023-01-08T06:37:06.425Z,97100.69
2023-01-08T06:39:33.931Z,97105.16
2023-01-08T06:42:01.475Z,97113.69
2023-01-08T06:44:28.989Z,97110.66
2023-01-08T06:46:59.259Z,97109.22
2023-01-08T06:49:28.274Z,97110.03
2023-01-08T06:51:55.781Z,97109.03
2023-01-08T06:54:23.287Z,97106.41
2023-01-08T06:56:53.896Z,97117.56
2023-01-08T06:59:22.474Z,97111.44
2023-01-08T07:01:51.031Z,97109.66
2023-01-08T07:04:19.831Z,97118.94
2023-01-08T07:06:47.887Z,97116.13
2023-01-08T07:09:16.289Z,97114.91
2023-01-08T07:11:43.799Z,97115.72
2023-01-08T07:14:11.690Z,97116.50
2023-01-08T07:16:39.385Z,97118.31
2023-01-08T07:19:06.993Z,97120.97
2023-01-08T07:21:34.564Z,97127.47
2023-01-08T07:24:02.065Z,97125.03
2023-01-08T07:26:29.571Z,97127.66
2023-01-08T07:28:57.173Z,97116.88
2023-01-08T07:31:24.944Z,97121.94
2023-01-08T07:33:52.549Z,97114.97
2023-01-08T07:36:22.627Z,97114.38
2023-01-08T07:38:50.587Z,97117.75
2023-01-08T07:41:18.542Z,97117.91
2023-01-08T07:43:48.390Z,97112.34
2023-01-08T07:46:16.587Z,97099.94
2023-01-08T07:48:44.273Z,97097.38
2023-01-08T07:51:11.913Z,97089.56
2023-01-08T07:53:39.628Z,97099.00
2023-01-08T07:56:10.134Z,97098.84
2023-01-08T07:58:38.253Z,97104.16
2023-01-08T08:01:10.189Z,97099.28
2023-01-08T08:03:41.611Z,97100.03
2023-01-08T08:06:09.651Z,97101.16
2023-01-08T08:08:37.159Z,97102.50
2023-01-08T08:11:04.812Z,97098.56
2023-01-08T08:13:32.442Z,97090.94
2023-01-08T08:16:04.285Z,97091.91
2023-01-08T08:18:31.951Z,97101.66
2023-01-08T08:20:59.452Z,97096.97
2023-01-08T08:23:27.081Z,97092.16
2023-01-08T08:25:54.593Z,97088.53
2023-01-08T08:28:22.221Z,97090.75
2023-01-08T08:30:51.717Z,97096.66
2023-01-08T08:33:19.384Z,97095.63
2023-01-08T08:35:51.236Z,97091.13
2023-01-08T08:38:18.960Z,97092.47
2023-01-08T08:40:46.491Z,97081.38
2023-01-08T08:43:14.072Z,97070.91
2023-01-08T08:45:41.629Z,97072.59
2023-01-08T08:48:09.728Z,97070.53
2023-01-08T08:50:38.612Z,97057.34
2023-01-08T08:53:07.194Z,97042.22
2023-01-08T08:55:34.989Z,97039.34
2023-01-08T08:58:13.405Z,97034.78
2023-01-08T09:00:42.338Z,97045.72
2023-01-08T09:03:14.626Z,97037.78
2023-01-08T09:05:45.498Z,97048.22
2023-01-08T09:08:13.220Z,97052.72
2023-01-08T09:10:42.448Z,97053.81
2023-01-08T09:13:10.511Z,97037.47
2023-01-08T09:15:38.498Z,97053.38
2023-01-08T09:18:06.063Z,97040.06
2023-01-08T09:20:33.759Z,97046.22
2023-01-08T09:23:03.335Z,97031.28
2023-01-08T09:25:31.489Z,97023.66
2023-01-08T09:28:04.460Z,97020.84
2023-01-08T09:30:32.804Z,97021.09
2023-01-08T09:33:02.916Z,97019.34
2023-01-08T09:35:34.355Z,97018.88
2023-01-08T09:38:01.940Z,97015.84
2023-01-08T09:40:35.731Z,97004.22
2023-01-08T09:43:04.062Z,97001.47
2023-01-08T09:45:33.043Z,96998.69
2023-01-08T09:48:04.723Z,97001.88
2023-01-08T09:50:33.188Z,96999.84
2023-01-08T09:53:00.816Z,97004.94
2023-01-08T09:55:32.666Z,97009.06
2023-01-08T09:58:03.027Z,97003.69
2023-01-08T10:00:34.113Z,96994.69
2023-01-08T10:03:01.826Z,96990.66
2023-01-08T10:05:30.069Z,96985.59
2023-01-08T10:07:57.999Z,96992.59
2023-01-08T10:10:32.695Z,96994.88
2023-01-08T10:13:00.695Z,96995.47
2023-01-08T10:15:28.211Z,96997.97
2023-01-08T10:17:58.387Z,97009.88
2023-01-08T10:20:26.887Z,97011.91
2023-01-08T10:22:55.129Z,97006.63
2023-01-08T10:25:26.167Z,97013.31
2023-01-08T10:28:03.488Z,97004.56
2023-01-08T10:30:30.881Z,97002.97
2023-01-08T10:33:04.589Z,96994.13
2023-01-08T10:35:35.933Z,96999.03
2023-01-08T10:38:04.010Z,96996.78
2023-01-08T10:40:47.137Z,96991.75
2023-01-08T10:43:26.235Z,96980.63
2023-01-08T10:46:00.368Z,96988.50
2023-01-08T10:48:51.513Z,96977.94
2023-01-08T10:51:23.817Z,96963.66
2023-01-08T10:53:53.026Z,96955.72
2023-01-08T10:56:23.544Z,96946.88
2023-01-08T10:58:53.438Z,96951.75
2023-01-08T11:01:23.685Z,96955.28
2023-01-08T11:03:54.191Z,96946.91
2023-01-08T11:06:27.919Z,96947.97
2023-01-08T11:08:59.740Z,96938.72
2023-01-08T11:11:38.370Z,96937.47
2023-01-08T11:14:35.231Z,96933.09
2023-01-08T11:17:11.757Z,96926.00
2023-01-08T11:19:40.121Z,96928.66
2023-01-08T11:22:25.199Z,96929.22
2023-01-08T11:24:53.596Z,96922.13
2023-01-08T11:27:27.071Z,96925.41
2023-01-08T11:30:06.455Z,96916.63
2023-01-08T11:32:37.148Z,96916.25
2023-01-08T11:35:13.750Z,96920.03
2023-01-08T11:37:46.911Z,96915.72
2023-01-08T11:40:39.422Z,96910.97
2023-01-08T11:43:18.370Z,96912.22
2023-01-08T11:45:57.886Z,96910.19
2023-01-08T11:48:32.101Z,96908.53
2023-01-08T11:51:19.101Z,96918.13
2023-01-08T11:53:51.767Z,96917.16
2023-01-08T11:56:44.319Z,96908.78
2023-01-08T11:59:29.885Z,96910.09
2023-01-08T12:02:19.065Z,96904.97
2023-01-08T12:05:09.434Z,96905.41
2023-01-08T12:08:02.517Z,96894.81
2023-01-08T12:11:04.508Z,96891.72
2023-01-08T12:14:13.791Z,96895.09
2023-01-08T12:16:48.612Z,96903.19
2023-01-08T12:20:01.789Z,96905.59
2023-01-08T12:22:43.392Z,96903.19
2023-01-08T12:25:26.417Z,96908.56
2023-01-08T12:28:35.982Z,96890.06
2023-01-08T12:31:33.890Z,96898.09
2023-01-08T12:34:09.837Z,96884.34
2023-01-08T12:36:42.869Z,96879.22
2023-01-08T12:39:16.146Z,96872.34
2023-01-08T12:41:45.594Z,96875.72
2023-01-08T12:44:22.749Z,96870.59
2023-01-08T12:46:52.056Z,96874.31
2023-01-08T12:49:29.110Z,96886.22
2023-01-08T12:52:07.632Z,96882.59
2023-01-08T12:54:44.358Z,96868.59
2023-01-08T12:57:25.305Z,96880.13
2023-01-08T13:00:31.004Z,96877.56
2023-01-08T13:03:02.700Z,96876.16
2023-01-08T13:05:38.033Z,96879.78
2023-01-08T13:08:29.827Z,96879.34
2023-01-08T13:10:57.528Z,96876.16
2023-01-08T13:13:34.294Z,96870.63
2023-01-08T13:16:19.935Z,96870.78
2023-01-08T13:18:56.864Z,96867.53
2023-01-08T13:21:33.057Z,96857.78
2023-01-08T13:24:06.940Z,96865.06
2023-01-08T13:26:37.127Z,96855.97
2023-01-08T13:29:23.849Z,96856.41
2023-01-08T13:31:51.846Z,96863.22
2023-01-08T13:34:22.730Z,96860.78
2023-01-08T13:36:58.036Z,96859.22
2023-01-08T13:39:36.730Z,96855.25
2023-01-08T13:42:23.989Z,96832.66
2023-01-08T13:44:57.813Z,96846.47
2023-01-08T13:47:25.242Z,96842.78
2023-01-08T13:49:54.938Z,96837.28
2023-01-08T13:52:43.474Z,96831.13
2023-01-08T13:55:21.338Z,96833.53
2023-01-08T13:57:55.080Z,96834.50
2023-01-08T14:00:47.830Z,96834.28
2023-01-08T14:03:28.495Z,96838.34
2023-01-08T14:06:06.926Z,96830.03
2023-01-08T14:08:34.938Z,96836.34
2023-01-08T14:11:04.208Z,96838.63
2023-01-08T14:13:35.790Z,96847.41
2023-01-08T14:16:05.945Z,96836.06
2023-01-08T14:18:34.547Z,96841.34
2023-01-08T14:21:03.607Z,96845.16
2023-01-08T14:23:46.467Z,96848.28
2023-01-08T14:26:21.914Z,96838.97
2023-01-08T14:28:53.919Z,96849.44
2023-01-08T14:31:24.033Z,96851.94
2023-01-08T14:33:53.568Z,96842.44
2023-01-08T14:36:22.192Z,96838.22
2023-01-08T14:38:52.992Z,96838.28
2023-01-08T14:41:20.473Z,96839.44
2023-01-08T14:43:50.025Z,96829.31
2023-01-08T14:46:30.452Z,96839.47
2023-01-08T14:48:58.612Z,96825.75
2023-01-08T14:51:29.584Z,96835.25
2023-01-08T14:54:03.667Z,96822.16
2023-01-08T14:56:34.109Z,96815.09
2023-01-08T14:59:08.468Z,96822.84
2023-01-08T15:01:37.407Z,96815.41
2023-01-08T15:04:17.992Z,96803.81
2023-01-08T15:06:46.684Z,96809.94
2023-01-08T15:09:34.620Z,96815.00
2023-01-08T15:12:04.735Z,96823.50
2023-01-08T15:14:37.433Z,96816.25
2023-01-08T15:17:15.489Z,96824.53
2023-01-08T15:19:49.634Z,96816.41
2023-01-08T15:22:24.332Z,96810.97
2023-01-08T15:25:03.187Z,96814.56
2023-01-08T15:27:37.171Z,96813.34
2023-01-08T15:30:09.256Z,96812.53
2023-01-08T15:32:39.045Z,96812.28
2023-01-08T15:35:18.750Z,96805.78
2023-01-08T15:37:46.714Z,96821.38
2023-01-08T15:40:14.564Z,96821.81
2023-01-08T15:43:02.863Z,96826.66
2023-01-08T15:45:33.924Z,96838.84
2023-01-08T15:48:01.598Z,96839.44
2023-01-08T15:50:32.560Z,96847.34
2023-01-08T15:53:01.397Z,96848.56
2023-01-08T15:55:28.888Z,96856.28
2023-01-08T15:57:56.442Z,96845.34
2023-01-08T16:00:24.330Z,96848.97
2023-01-08T16:02:53.790Z,96848.56
2023-01-08T16:05:24.288Z,96855.91
2023-01-08T16:07:52.203Z,96844.13
2023-01-08T16:10:20.340Z,96840.09
2023-01-08T16:12:47.907Z,96835.22
2023-01-08T16:15:16.018Z,96843.28
2023-01-08T16:17:44.530Z,96832.16
2023-01-08T16:20:13.933Z,96840.66
2023-01-08T16:22:41.875Z,96845.31
2023-01-08T16:25:09.900Z,96834.97
2023-01-08T16:27:38.510Z,96827.66
2023-01-08T16:30:08.237Z,96820.97
2023-01-08T16:32:35.809Z,96818.56
2023-01-08T16:35:03.483Z,96821.56
2023-01-08T16:37:31.591Z,96835.19
2023-01-08T16:39:59.045Z,96821.81
2023-01-08T16:42:26.712Z,96829.69
2023-01-08T16:44:54.138Z,96821.56
2023-01-08T16:47:21.938Z,96818.94
2023-01-08T16:49:50.609Z,96806.97
2023-01-08T16:52:18.725Z,96798.84
2023-01-08T16:54:47.554Z,96802.72
2023-01-08T16:57:15.096Z,96805.31
2023-01-08T16:59:42.768Z,96804.28
2023-01-08T17:02:10.808Z,96814.25
2023-01-08T17:04:38.516Z,96809.97
2023-01-08T17:07:06.807Z,96809.56
2023-01-08T17:09:34.404Z,96796.78
2023-01-08T17:12:02.170Z,96790.09
2023-01-08T17:14:29.736Z,96795.78
2023-01-08T17:16:57.319Z,96792.72
2023-01-08T17:19:24.703Z,96778.50
2023-01-08T17:21:52.348Z,96777.31
2023-01-08T17:24:19.999Z,96769.81
2023-01-08T17:26:48.141Z,96777.75
2023-01-08T17:29:15.583Z,96773.47
2023-01-08T17:31:43.212Z,96771.00
2023-01-08T17:34:14.226Z,96767.75
2023-01-08T17:36:43.071Z,96763.88
2023-01-08T17:39:12.522Z,96758.25
2023-01-08T17:41:58.530Z,96759.66
2023-01-08T17:44:26.649Z,96763.28
2023-01-08T17:46:54.092Z,96760.03
2023-01-08T17:49:21.650Z,96764.25
2023-01-08T17:51:49.119Z,96764.25
2023-01-08T17:54:17.361Z,96761.47
2023-01-08T17:56:45.012Z,96752.31
2023-01-08T17:59:17.879Z,96748.72
2023-01-08T18:01:46.189Z,96743.59
2023-01-08T18:04:14.829Z,96729.22
2023-01-08T18:06:43.249Z,96725.41
2023-01-08T18:09:12.621Z,96721.13
2023-01-08T18:11:41.904Z,96719.34
2023-01-08T18:14:12.045Z,96716.34
2023-01-08T18:16:40.430Z,96709.47
2023-01-08T18:19:08.419Z,96713.50
2023-01-08T18:21:35.979Z,96702.28
2023-01-08T18:24:03.640Z,96713.38
2023-01-08T18:26:31.257Z,96706.94
2023-01-08T18:28:58.739Z,96689.47
2023-01-08T18:31:26.406Z,96689.75
2023-01-08T18:33:53.827Z,96683.09
2023-01-08T18:36:22.405Z,96682.47
2023-01-08T18:38:51.089Z,96695.41
2023-01-08T18:41:39.338Z,96697.50
2023-01-08T18:44:08.224Z,96697.69
2023-01-08T18:46:36.022Z,96699.66
2023-01-08T18:49:04.267Z,96705.34
2023-01-08T18:51:31.748Z,96699.09
2023-01-08T18:53:59.728Z,96707.25
2023-01-08T18:56:30.474Z,96698.50
2023-01-08T18:58:58.472Z,96684.31
2023-01-08T19:01:26.583Z,96685.97
2023-01-08T19:03:55.799Z,96676.22
2023-01-08T19:06:24.495Z,96682.75
2023-01-08T19:08:52.456Z,96686.78
2023-01-08T19:11:20.430Z,96688.81
2023-01-08T19:13:48.027Z,96681.75
2023-01-08T19:16:18.914Z,96683.13
2023-01-08T19:18:46.546Z,96684.75
2023-01-08T19:21:14.993Z,96682.91
2023-01-08T19:23:42.599Z,96685.91
2023-01-08T19:26:10.408Z,96688.56
2023-01-08T19:28:38.408Z,96668.50
2023-01-08T19:31:06.017Z,96664.72
2023-01-08T19:33:33.664Z,96670.75
2023-01-08T19:36:08.840Z,96652.44
2023-01-08T19:38:36.419Z,96652.59
2023-01-08T19:41:04.441Z,96648.34
2023-01-08T19:43:44.175Z,96640.56
2023-01-08T19:46:18.609Z,96635.47
2023-01-08T19:48:46.117Z,96623.69
2023-01-08T19:51:14.023Z,96616.94
2023-01-08T19:53:41.788Z,96625.88
2023-01-08T19:56:12.008Z,96621.75
2023-01-08T19:58:39.899Z,96624.03
2023-01-08T20:01:15.313Z,96622.13
2023-01-08T20:03:43.888Z,96616.84
2023-01-08T20:06:20.357Z,96620.31
2023-01-08T20:08:54.280Z,96618.69
2023-01-08T20:11:22.806Z,96607.13
2023-01-08T20:13:51.074Z,96601.84
2023-01-08T20:16:20.754Z,96591.88
2023-01-08T20:18:48.655Z,96581.91
2023-01-08T20:21:21.086Z,96585.78
2023-01-08T20:23:49.065Z,96585.78
2023-01-08T20:26:18.677Z,96579.09
2023-01-08T20:28:47.012Z,96579.88
2023-01-08T20:31:20.579Z,96572.38
2023-01-08T20:33:48.941Z,96566.66
2023-01-08T20:36:19.833Z,96557.13
2023-01-08T20:38:51.566Z,96567.22
2023-01-08T20:41:19.418Z,96570.91
2023-01-08T20:43:47.885Z,96572.06
2023-01-08T20:46:16.152Z,96568.25
2023-01-08T20:48:47.856Z,96553.59
2023-01-08T20:51:16.140Z,96552.13
2023-01-08T20:53:43.673Z,96549.25
2023-01-08T20:56:13.295Z,96554.91
2023-01-08T20:58:43.564Z,96551.63
2023-01-08T21:01:17.259Z,96560.94
2023-01-08T21:03:45.164Z,96565.00
2023-01-08T21:06:16.188Z,96569.28
2023-01-08T21:08:45.906Z,96565.16
2023-01-08T21:11:14.193Z,96555.25
2023-01-08T21:13:42.349Z,96557.34
2023-01-08T21:16:14.297Z,96565.00
2023-01-08T21:18:47.190Z,96556.09
2023-01-08T21:21:28.763Z,96565.25
2023-01-08T21:23:57.275Z,96562.81
2023-01-08T21:26:24.999Z,96555.13
2023-01-08T21:28:53.188Z,96549.63
2023-01-08T21:31:23.399Z,96550.31
2023-01-08T21:33:51.535Z,96540.53
2023-01-08T21:36:21.872Z,96525.06
2023-01-08T21:38:49.956Z,96517.00
2023-01-08T21:41:40.727Z,96517.22
2023-01-08T21:44:33.494Z,96514.75
2023-01-08T21:47:01.993Z,96500.06
2023-01-08T21:49:29.692Z,96495.44
2023-01-08T21:52:15.624Z,96503.84
2023-01-08T21:54:43.706Z,96507.75
2023-01-08T21:57:11.291Z,96507.53
2023-01-08T21:59:38.829Z,96508.78
2023-01-08T22:02:06.804Z,96481.13
2023-01-08T22:04:34.324Z,96481.13
2023-01-08T22:07:02.396Z,96481.78
2023-01-08T22:09:30.172Z,96479.97
2023-01-08T22:11:57.677Z,96471.69
2023-01-08T22:14:25.227Z,96472.13
2023-01-08T22:16:52.718Z,96470.31
2023-01-08T22:19:20.780Z,96464.00
2023-01-08T22:21:48.198Z,96474.50
2023-01-08T22:24:15.757Z,96473.59
2023-01-08T22:26:43.327Z,96482.38
2023-01-08T22:29:10.777Z,96483.41
2023-01-08T22:31:38.339Z,96478.94
2023-01-08T22:34:05.734Z,96479.59
2023-01-08T22:36:33.719Z,96471.41
2023-01-08T22:39:01.218Z,96465.78
2023-01-08T22:41:28.680Z,96450.75
2023-01-08T22:43:57.188Z,96449.34
2023-01-08T22:46:25.292Z,96439.09
2023-01-08T22:48:53.139Z,96431.19
2023-01-08T22:51:27.777Z,96426.78
2023-01-08T22:53:57.042Z,96423.56
2023-01-08T22:56:25.259Z,96424.94
2023-01-08T22:58:53.242Z,96421.72
2023-01-08T23:01:23.928Z,96430.59
2023-01-08T23:03:57.094Z,96429.78
2023-01-08T23:06:26.930Z,96428.66
2023-01-08T23:08:55.500Z,96434.50
2023-01-08T23:11:24.299Z,96426.16
2023-01-08T23:13:51.979Z,96425.78
2023-01-08T23:16:24.316Z,96417.63
2023-01-08T23:18:54.239Z,96413.25
2023-01-08T23:21:23.952Z,96406.38
2023-01-08T23:23:52.302Z,96408.31
2023-01-08T23:26:23.377Z,96412.94
2023-01-08T23:28:52.735Z,96418.38
2023-01-08T23:31:24.208Z,96407.56
2023-01-08T23:33:52.701Z,96409.25
2023-01-08T23:36:21.517Z,96413.41
2023-01-08T23:38:54.298Z,96402.38
2023-01-08T23:41:33.055Z,96393.78
2023-01-08T23:44:08.007Z,96394.16
2023-01-08T23:46:35.672Z,96398.66
2023-01-08T23:49:03.684Z,96406.03
2023-01-08T23:51:31.256Z,96393.41
2023-01-08T23:53:59.400Z,96394.78
2023-01-08T23:56:28.120Z,96391.25
2023-01-08T23:58:55.652Z,96384.38
